Time;durP1;ratioP1;P1;durP2;ratioP2;P2;SDS_P1;SDS_P2;PMS_P1;PMS_P2;Temp;Humidity;BMP_temperature;BMP_pressure;BME280_temperature;BME280_humidity;BME280_pressure;Samples;Min_cycle;Max_cycle;Signal;HPM_P1;HPM_P2
2022/06/16 00:00:39;;;;;;;7.050001;6.35;;;;;;;16.88;67.02832;95334.02;;;;
2022/06/16 00:01:40;;;;;;;7.050001;6.35;;;;;;;16.88;67.02832;95334.02;;;;
2022/06/16 00:02:41;;;;;;;7.050001;6.35;;;;;;;16.88;67.02832;95334.02;;;;
2022/06/16 00:03:42;;;;;;;7.050001;6.35;;;;;;;16.88;67.02832;95334.02;;;;
2022/06/16 00:04:46;;;;;;;7.050001;6.35;;;;;;;16.88;67.02832;95334.02;;;;
2022/06/16 00:05:46;;;;;;;7.050001;6.35;;;;;;;16.88;67.02832;95334.02;;;;
2022/06/16 00:06:47;;;;;;;7.050001;6.35;;;;;;;16.88;67.02832;95334.02;;;;
2022/06/16 00:07:47;;;;;;;7.050001;6.35;;;;;;;16.88;67.02832;95334.02;;;;
2022/06/16 00:08:48;;;;;;;7.050001;6.35;;;;;;;16.88;67.02832;95334.02;;;;
2022/06/16 00:09:48;;;;;;;7.2;6.6;;;;;;;16.85;67.33008;95315.43;;;;
2022/06/16 00:11:21;;;;;;;7.2;6.6;;;;;;;16.85;67.33008;95315.43;;;;
2022/06/16 00:12:22;;;;;;;7.2;6.6;;;;;;;16.85;67.33008;95315.43;;;;
2022/06/16 00:13:22;;;;;;;7.2;6.6;;;;;;;16.85;67.33008;95315.43;;;;
2022/06/16 00:14:23;;;;;;;7.2;6.6;;;;;;;16.85;67.33008;95315.43;;;;
2022/06/16 00:15:23;;;;;;;7.2;6.6;;;;;;;16.85;67.33008;95315.43;;;;
2022/06/16 00:16:26;;;;;;;7.2;6.6;;;;;;;16.85;67.33008;95315.43;;;;
2022/06/16 00:17:26;;;;;;;7.2;6.6;;;;;;;16.85;67.33008;95315.43;;;;
2022/06/16 00:18:27;;;;;;;7.2;6.6;;;;;;;16.85;67.33008;95315.43;;;;
2022/06/16 00:19:28;;;;;;;7.2;6.6;;;;;;;16.85;67.33008;95315.43;;;;
2022/06/16 00:20:29;;;;;;;6.75;6.199999;;;;;;;16.75;67.55469;95315.31;;;;
2022/06/16 00:21:29;;;;;;;6.75;6.199999;;;;;;;16.75;67.55469;95315.31;;;;
2022/06/16 00:22:30;;;;;;;6.75;6.199999;;;;;;;16.75;67.55469;95315.31;;;;
2022/06/16 00:23:31;;;;;;;6.75;6.199999;;;;;;;16.75;67.55469;95315.31;;;;
2022/06/16 00:24:32;;;;;;;6.75;6.199999;;;;;;;16.75;67.55469;95315.31;;;;
2022/06/16 00:25:33;;;;;;;6.75;6.199999;;;;;;;16.75;67.55469;95315.31;;;;
2022/06/16 00:26:33;;;;;;;6.75;6.199999;;;;;;;16.75;67.55469;95315.31;;;;
2022/06/16 00:27:34;;;;;;;6.75;6.199999;;;;;;;16.75;67.55469;95315.31;;;;
2022/06/16 00:28:34;;;;;;;6.75;6.199999;;;;;;;16.75;67.55469;95315.31;;;;
2022/06/16 00:29:35;;;;;;;6.75;6.199999;;;;;;;16.75;67.55469;95315.31;;;;
2022/06/16 00:30:35;;;;;;;6.75;6.199999;;;;;;;16.75;67.55469;95315.31;;;;
2022/06/16 00:31:36;;;;;;;6.699999;6.099999;;;;;;;16.7;67.90918;95321.5;;;;
2022/06/16 00:32:37;;;;;;;6.699999;6.099999;;;;;;;16.7;67.90918;95321.5;;;;
2022/06/16 00:33:38;;;;;;;6.699999;6.099999;;;;;;;16.7;67.90918;95321.5;;;;
2022/06/16 00:34:39;;;;;;;6.699999;6.099999;;;;;;;16.7;67.90918;95321.5;;;;
2022/06/16 00:35:40;;;;;;;6.699999;6.099999;;;;;;;16.7;67.90918;95321.5;;;;
2022/06/16 00:36:40;;;;;;;6.699999;6.099999;;;;;;;16.7;67.90918;95321.5;;;;
2022/06/16 00:37:41;;;;;;;6.699999;6.099999;;;;;;;16.7;67.90918;95321.5;;;;
2022/06/16 00:38:41;;;;;;;6.699999;6.099999;;;;;;;16.7;67.90918;95321.5;;;;
2022/06/16 00:39:42;;;;;;;6.699999;6.099999;;;;;;;16.7;67.90918;95321.5;;;;
2022/06/16 00:40:44;;;;;;;6.699999;6.099999;;;;;;;16.7;67.90918;95321.5;;;;
2022/06/16 00:41:44;;;;;;;6.699999;6.099999;;;;;;;16.73;67.97754;95315.29;;;;
2022/06/16 00:42:45;;;;;;;6.699999;6.099999;;;;;;;16.73;67.97754;95315.29;;;;
2022/06/16 00:43:46;;;;;;;6.699999;6.099999;;;;;;;16.73;67.97754;95315.29;;;;
2022/06/16 00:44:46;;;;;;;6.699999;6.099999;;;;;;;16.73;67.97754;95315.29;;;;
2022/06/16 00:45:49;;;;;;;6.699999;6.099999;;;;;;;16.73;67.97754;95315.29;;;;
2022/06/16 00:46:52;;;;;;;6.699999;6.099999;;;;;;;16.73;67.97754;95315.29;;;;
2022/06/16 00:47:53;;;;;;;6.699999;6.099999;;;;;;;16.73;67.97754;95315.29;;;;
2022/06/16 00:48:55;;;;;;;6.699999;6.099999;;;;;;;16.73;67.97754;95315.29;;;;
2022/06/16 00:49:58;;;;;;;6.699999;6.099999;;;;;;;16.73;67.97754;95315.29;;;;
2022/06/16 00:51:03;;;;;;;6.699999;6.099999;;;;;;;16.73;67.97754;95315.29;;;;
2022/06/16 00:52:08;;;;;;;5.9;5.35;;;;;;;16.78;67.89941;95313.87;;;;
2022/06/16 00:53:11;;;;;;;5.9;5.35;;;;;;;16.78;67.89941;95313.87;;;;
2022/06/16 00:54:12;;;;;;;5.9;5.35;;;;;;;16.78;67.89941;95313.87;;;;
2022/06/16 00:55:18;;;;;;;5.9;5.35;;;;;;;16.78;67.89941;95313.87;;;;
2022/06/16 00:56:19;;;;;;;5.9;5.35;;;;;;;16.78;67.89941;95313.87;;;;
2022/06/16 00:57:20;;;;;;;5.9;5.35;;;;;;;16.78;67.89941;95313.87;;;;
2022/06/16 00:58:28;;;;;;;5.9;5.35;;;;;;;16.78;67.89941;95313.87;;;;
2022/06/16 00:59:32;;;;;;;5.9;5.35;;;;;;;16.78;67.89941;95313.87;;;;
2022/06/16 01:00:35;;;;;;;5.9;5.35;;;;;;;16.78;67.89941;95313.87;;;;
2022/06/16 01:01:38;;;;;;;5.9;5.35;;;;;;;16.78;67.89941;95313.87;;;;
2022/06/16 01:02:41;;;;;;;5.9;5.35;;;;;;;16.78;67.89941;95313.87;;;;
2022/06/16 01:08:56;;;;;;;6.550001;5.649999;;;;;;;16.75;67.95996;95323.72;;;;
2022/06/16 01:10:00;;;;;;;6.550001;5.649999;;;;;;;16.75;67.95996;95323.72;;;;
2022/06/16 01:11:03;;;;;;;6.550001;5.649999;;;;;;;16.75;67.95996;95323.72;;;;
2022/06/16 01:17:31;;;;;;;5.85;5.299999;;;;;;;16.77;67.98438;95319.06;;;;
2022/06/16 01:18:40;;;;;;;5.85;5.299999;;;;;;;16.77;67.98438;95319.06;;;;
2022/06/16 01:19:48;;;;;;;5.85;5.299999;;;;;;;16.77;67.98438;95319.06;;;;
2022/06/16 01:21:05;;;;;;;5.85;5.299999;;;;;;;16.77;67.98438;95319.06;;;;
2022/06/16 01:22:13;;;;;;;5.85;5.299999;;;;;;;16.77;67.98438;95319.06;;;;
2022/06/16 01:23:28;;;;;;;5.85;5.299999;;;;;;;16.77;67.98438;95319.06;;;;
2022/06/16 01:24:52;;;;;;;5.550001;5.049999;;;;;;;16.68;68.22168;95311.63;;;;
2022/06/16 01:26:08;;;;;;;5.550001;5.049999;;;;;;;16.68;68.22168;95311.63;;;;
2022/06/16 01:27:28;;;;;;;5.550001;5.049999;;;;;;;16.68;68.22168;95311.63;;;;
2022/06/16 01:29:15;;;;;;;5.550001;5.049999;;;;;;;16.68;68.22168;95311.63;;;;
2022/06/16 01:30:23;;;;;;;5.550001;5.049999;;;;;;;16.68;68.22168;95311.63;;;;
2022/06/16 01:31:31;;;;;;;5.550001;5.049999;;;;;;;16.68;68.22168;95311.63;;;;
2022/06/16 01:32:39;;;;;;;5.550001;5.049999;;;;;;;16.68;68.22168;95311.63;;;;
2022/06/16 01:33:48;;;;;;;5.550001;5.049999;;;;;;;16.68;68.22168;95311.63;;;;
2022/06/16 01:34:56;;;;;;;6.2;4.5;;;;;;;16.68;68.33203;95317.35;;;;
2022/06/16 01:36:07;;;;;;;6.2;4.5;;;;;;;16.68;68.33203;95317.35;;;;
2022/06/16 01:37:17;;;;;;;6.2;4.5;;;;;;;16.68;68.33203;95317.35;;;;
2022/06/16 01:38:26;;;;;;;6.2;4.5;;;;;;;16.68;68.33203;95317.35;;;;
2022/06/16 01:39:34;;;;;;;6.2;4.5;;;;;;;16.68;68.33203;95317.35;;;;
2022/06/16 01:40:38;;;;;;;6.2;4.5;;;;;;;16.68;68.33203;95317.35;;;;
2022/06/16 01:41:46;;;;;;;6.2;4.5;;;;;;;16.68;68.33203;95317.35;;;;
2022/06/16 01:42:53;;;;;;;6.2;4.5;;;;;;;16.68;68.33203;95317.35;;;;
2022/06/16 01:44:03;;;;;;;6.2;4.5;;;;;;;16.68;68.33203;95317.35;;;;
2022/06/16 01:45:09;;;;;;;6.2;4.5;;;;;;;16.68;68.33203;95317.35;;;;
2022/06/16 01:46:16;;;;;;;6.65;4.699999;;;;;;;16.69;68.19043;95310.16;;;;
2022/06/16 01:47:21;;;;;;;6.65;4.699999;;;;;;;16.69;68.19043;95310.16;;;;
2022/06/16 01:48:23;;;;;;;6.65;4.699999;;;;;;;16.69;68.19043;95310.16;;;;
2022/06/16 01:49:27;;;;;;;6.65;4.699999;;;;;;;16.69;68.19043;95310.16;;;;
2022/06/16 01:50:32;;;;;;;6.65;4.699999;;;;;;;16.69;68.19043;95310.16;;;;
2022/06/16 01:51:36;;;;;;;6.65;4.699999;;;;;;;16.69;68.19043;95310.16;;;;
2022/06/16 01:52:42;;;;;;;6.65;4.699999;;;;;;;16.69;68.19043;95310.16;;;;
2022/06/16 01:53:49;;;;;;;6.65;4.699999;;;;;;;16.69;68.19043;95310.16;;;;
2022/06/16 01:54:53;;;;;;;6.65;4.699999;;;;;;;16.69;68.19043;95310.16;;;;
2022/06/16 01:56:00;;;;;;;6.65;4.699999;;;;;;;16.69;68.19043;95310.16;;;;
2022/06/16 01:57:08;;;;;;;6;4.9;;;;;;;16.75;68.06934;95311.3;;;;
2022/06/16 01:58:12;;;;;;;6;4.9;;;;;;;16.75;68.06934;95311.3;;;;
2022/06/16 01:59:18;;;;;;;6;4.9;;;;;;;16.75;68.06934;95311.3;;;;
2022/06/16 02:00:22;;;;;;;6;4.9;;;;;;;16.75;68.06934;95311.3;;;;
2022/06/16 02:01:26;;;;;;;6;4.9;;;;;;;16.75;68.06934;95311.3;;;;
2022/06/16 02:02:30;;;;;;;6;4.9;;;;;;;16.75;68.06934;95311.3;;;;
2022/06/16 02:03:34;;;;;;;6;4.9;;;;;;;16.75;68.06934;95311.3;;;;
2022/06/16 02:04:39;;;;;;;6;4.9;;;;;;;16.75;68.06934;95311.3;;;;
2022/06/16 02:05:45;;;;;;;6;4.9;;;;;;;16.75;68.06934;95311.3;;;;
2022/06/16 02:06:50;;;;;;;5.55;5;;;;;;;16.71;67.96484;95303.91;;;;
2022/06/16 02:07:54;;;;;;;5.55;5;;;;;;;16.71;67.96484;95303.91;;;;
2022/06/16 02:09:01;;;;;;;5.55;5;;;;;;;16.71;67.96484;95303.91;;;;
2022/06/16 02:10:07;;;;;;;5.55;5;;;;;;;16.71;67.96484;95303.91;;;;
2022/06/16 02:11:13;;;;;;;5.55;5;;;;;;;16.71;67.96484;95303.91;;;;
2022/06/16 02:12:55;;;;;;;5.55;5;;;;;;;16.71;67.96484;95303.91;;;;
2022/06/16 02:13:59;;;;;;;5.55;5;;;;;;;16.71;67.96484;95303.91;;;;
2022/06/16 02:15:07;;;;;;;5.55;5;;;;;;;16.71;67.96484;95303.91;;;;
2022/06/16 02:16:14;;;;;;;5.55;5;;;;;;;16.71;67.96484;95303.91;;;;
2022/06/16 02:17:19;;;;;;;5.55;5;;;;;;;16.71;67.96484;95303.91;;;;
2022/06/16 02:18:19;;;;;;;5.400001;5;;;;;;;16.63;68.26855;95303.96;;;;
2022/06/16 02:19:24;;;;;;;5.400001;5;;;;;;;16.63;68.26855;95303.96;;;;
2022/06/16 02:20:26;;;;;;;5.400001;5;;;;;;;16.63;68.26855;95303.96;;;;
2022/06/16 02:21:36;;;;;;;5.400001;5;;;;;;;16.63;68.26855;95303.96;;;;
2022/06/16 02:22:39;;;;;;;5.400001;5;;;;;;;16.63;68.26855;95303.96;;;;
2022/06/16 02:23:40;;;;;;;5.400001;5;;;;;;;16.63;68.26855;95303.96;;;;
2022/06/16 02:24:41;;;;;;;5.400001;5;;;;;;;16.63;68.26855;95303.96;;;;
2022/06/16 02:25:42;;;;;;;5.400001;5;;;;;;;16.63;68.26855;95303.96;;;;
2022/06/16 02:26:44;;;;;;;5.400001;5;;;;;;;16.63;68.26855;95303.96;;;;
2022/06/16 02:27:46;;;;;;;5.400001;5;;;;;;;16.63;68.26855;95303.96;;;;
2022/06/16 02:28:46;;;;;;;6.049999;5;;;;;;;16.49;68.5;95298.28;;;;
2022/06/16 02:29:49;;;;;;;6.049999;5;;;;;;;16.49;68.5;95298.28;;;;
2022/06/16 02:30:49;;;;;;;6.049999;5;;;;;;;16.49;68.5;95298.28;;;;
2022/06/16 02:32:04;;;;;;;6.049999;5;;;;;;;16.49;68.5;95298.28;;;;
2022/06/16 02:33:19;;;;;;;6.049999;5;;;;;;;16.49;68.5;95298.28;;;;
2022/06/16 02:34:27;;;;;;;6.049999;5;;;;;;;16.49;68.5;95298.28;;;;
2022/06/16 02:35:35;;;;;;;6.049999;5;;;;;;;16.49;68.5;95298.28;;;;
2022/06/16 02:36:43;;;;;;;6.049999;5;;;;;;;16.49;68.5;95298.28;;;;
2022/06/16 02:39:01;;;;;;;6.100001;5.5;;;;;;;16.47;68.61621;95301.75;;;;
2022/06/16 02:40:14;;;;;;;6.100001;5.5;;;;;;;16.47;68.61621;95301.75;;;;
2022/06/16 02:41:29;;;;;;;6.100001;5.5;;;;;;;16.47;68.61621;95301.75;;;;
2022/06/16 02:42:40;;;;;;;6.100001;5.5;;;;;;;16.47;68.61621;95301.75;;;;
2022/06/16 02:43:47;;;;;;;6.100001;5.5;;;;;;;16.47;68.61621;95301.75;;;;
2022/06/16 02:45:00;;;;;;;6.100001;5.5;;;;;;;16.47;68.61621;95301.75;;;;
2022/06/16 02:46:11;;;;;;;6.100001;5.5;;;;;;;16.47;68.61621;95301.75;;;;
2022/06/16 02:47:20;;;;;;;6.100001;5.5;;;;;;;16.47;68.61621;95301.75;;;;
2022/06/16 02:48:28;;;;;;;6.100001;5.5;;;;;;;16.47;68.61621;95301.75;;;;
2022/06/16 02:49:38;;;;;;;6.45;5.1;;;;;;;16.38;68.77734;95304;;;;
2022/06/16 02:50:44;;;;;;;6.45;5.1;;;;;;;16.38;68.77734;95304;;;;
2022/06/16 02:51:51;;;;;;;6.45;5.1;;;;;;;16.38;68.77734;95304;;;;
2022/06/16 02:53:07;;;;;;;6.45;5.1;;;;;;;16.38;68.77734;95304;;;;
2022/06/16 02:54:20;;;;;;;6.45;5.1;;;;;;;16.38;68.77734;95304;;;;
2022/06/16 02:55:27;;;;;;;6.45;5.1;;;;;;;16.38;68.77734;95304;;;;
2022/06/16 02:56:33;;;;;;;6.45;5.1;;;;;;;16.38;68.77734;95304;;;;
2022/06/16 02:57:39;;;;;;;6.45;5.1;;;;;;;16.38;68.77734;95304;;;;
2022/06/16 02:58:44;;;;;;;6.45;5.1;;;;;;;16.38;68.77734;95304;;;;
2022/06/16 02:59:48;;;;;;;6.45;5.1;;;;;;;16.38;68.77734;95304;;;;
2022/06/16 03:00:53;;;;;;;5.85;5.25;;;;;;;16.38;68.95117;95293.84;;;;
2022/06/16 03:01:56;;;;;;;5.85;5.25;;;;;;;16.38;68.95117;95293.84;;;;
2022/06/16 03:03:02;;;;;;;5.85;5.25;;;;;;;16.38;68.95117;95293.84;;;;
2022/06/16 03:04:16;;;;;;;5.85;5.25;;;;;;;16.38;68.95117;95293.84;;;;
2022/06/16 03:05:18;;;;;;;5.85;5.25;;;;;;;16.38;68.95117;95293.84;;;;
2022/06/16 03:06:19;;;;;;;5.85;5.25;;;;;;;16.38;68.95117;95293.84;;;;
2022/06/16 03:07:19;;;;;;;5.85;5.25;;;;;;;16.38;68.95117;95293.84;;;;
2022/06/16 03:08:20;;;;;;;5.85;5.25;;;;;;;16.38;68.95117;95293.84;;;;
2022/06/16 03:09:22;;;;;;;5.85;5.25;;;;;;;16.38;68.95117;95293.84;;;;
2022/06/16 03:10:50;;;;;;;5.85;5.25;;;;;;;16.38;68.95117;95293.84;;;;
2022/06/16 03:11:52;;;;;;;7.35;5.599999;;;;;;;16.25;69.05176;95280.35;;;;
2022/06/16 03:12:52;;;;;;;7.35;5.599999;;;;;;;16.25;69.05176;95280.35;;;;
2022/06/16 03:13:53;;;;;;;7.35;5.599999;;;;;;;16.25;69.05176;95280.35;;;;
2022/06/16 03:14:54;;;;;;;7.35;5.599999;;;;;;;16.25;69.05176;95280.35;;;;
2022/06/16 03:15:55;;;;;;;7.35;5.599999;;;;;;;16.25;69.05176;95280.35;;;;
2022/06/16 03:16:58;;;;;;;7.35;5.599999;;;;;;;16.25;69.05176;95280.35;;;;
2022/06/16 03:17:58;;;;;;;7.35;5.599999;;;;;;;16.25;69.05176;95280.35;;;;
2022/06/16 03:18:59;;;;;;;7.35;5.599999;;;;;;;16.25;69.05176;95280.35;;;;
2022/06/16 03:19:59;;;;;;;7.35;5.599999;;;;;;;16.25;69.05176;95280.35;;;;
2022/06/16 03:21:00;;;;;;;7.35;5.599999;;;;;;;16.25;69.05176;95280.35;;;;
2022/06/16 03:22:00;;;;;;;5.5;5;;;;;;;16.25;69.32617;95280.76;;;;
2022/06/16 03:23:02;;;;;;;5.5;5;;;;;;;16.25;69.32617;95280.76;;;;
2022/06/16 03:24:02;;;;;;;5.5;5;;;;;;;16.25;69.32617;95280.76;;;;
2022/06/16 03:25:03;;;;;;;5.5;5;;;;;;;16.25;69.32617;95280.76;;;;
2022/06/16 03:26:05;;;;;;;5.5;5;;;;;;;16.25;69.32617;95280.76;;;;
2022/06/16 03:27:05;;;;;;;5.5;5;;;;;;;16.25;69.32617;95280.76;;;;
2022/06/16 03:28:08;;;;;;;5.5;5;;;;;;;16.25;69.32617;95280.76;;;;
2022/06/16 03:29:09;;;;;;;5.5;5;;;;;;;16.25;69.32617;95280.76;;;;
2022/06/16 03:30:10;;;;;;;5.5;5;;;;;;;16.25;69.32617;95280.76;;;;
2022/06/16 03:31:11;;;;;;;5.5;5;;;;;;;16.25;69.32617;95280.76;;;;
2022/06/16 03:32:11;;;;;;;6.400001;4.9;;;;;;;16.25;69.25977;95287.02;;;;
2022/06/16 03:33:12;;;;;;;6.400001;4.9;;;;;;;16.25;69.25977;95287.02;;;;
2022/06/16 03:34:13;;;;;;;6.400001;4.9;;;;;;;16.25;69.25977;95287.02;;;;
2022/06/16 03:35:14;;;;;;;6.400001;4.9;;;;;;;16.25;69.25977;95287.02;;;;
2022/06/16 03:36:14;;;;;;;6.400001;4.9;;;;;;;16.25;69.25977;95287.02;;;;
2022/06/16 03:37:15;;;;;;;6.400001;4.9;;;;;;;16.25;69.25977;95287.02;;;;
2022/06/16 03:38:17;;;;;;;6.400001;4.9;;;;;;;16.25;69.25977;95287.02;;;;
2022/06/16 03:39:18;;;;;;;6.400001;4.9;;;;;;;16.25;69.25977;95287.02;;;;
2022/06/16 03:40:20;;;;;;;6.400001;4.9;;;;;;;16.25;69.25977;95287.02;;;;
2022/06/16 03:41:21;;;;;;;6.400001;4.9;;;;;;;16.25;69.25977;95287.02;;;;
2022/06/16 03:42:21;;;;;;;6.400001;4.9;;;;;;;16.25;69.25977;95287.02;;;;
2022/06/16 03:43:22;;;;;;;5.600001;4.950001;;;;;;;16.34;69.25098;95278.48;;;;
2022/06/16 03:44:22;;;;;;;5.600001;4.950001;;;;;;;16.34;69.25098;95278.48;;;;
2022/06/16 03:45:23;;;;;;;5.600001;4.950001;;;;;;;16.34;69.25098;95278.48;;;;
2022/06/16 03:46:23;;;;;;;5.600001;4.950001;;;;;;;16.34;69.25098;95278.48;;;;
2022/06/16 03:47:24;;;;;;;5.600001;4.950001;;;;;;;16.34;69.25098;95278.48;;;;
2022/06/16 03:48:25;;;;;;;5.600001;4.950001;;;;;;;16.34;69.25098;95278.48;;;;
2022/06/16 03:49:25;;;;;;;5.600001;4.950001;;;;;;;16.34;69.25098;95278.48;;;;
2022/06/16 03:50:26;;;;;;;5.600001;4.950001;;;;;;;16.34;69.25098;95278.48;;;;
2022/06/16 03:51:26;;;;;;;5.600001;4.950001;;;;;;;16.34;69.25098;95278.48;;;;
2022/06/16 03:52:27;;;;;;;5.600001;4.950001;;;;;;;16.34;69.25098;95278.48;;;;
2022/06/16 03:53:27;;;;;;;5.600001;4.950001;;;;;;;16.34;69.25098;95278.48;;;;
2022/06/16 03:54:28;;;;;;;6.149999;5.15;;;;;;;16.38;69.24707;95295.08;;;;
2022/06/16 03:55:28;;;;;;;6.149999;5.15;;;;;;;16.38;69.24707;95295.08;;;;
2022/06/16 03:56:29;;;;;;;6.149999;5.15;;;;;;;16.38;69.24707;95295.08;;;;
2022/06/16 03:57:29;;;;;;;6.149999;5.15;;;;;;;16.38;69.24707;95295.08;;;;
2022/06/16 03:58:30;;;;;;;6.149999;5.15;;;;;;;16.38;69.24707;95295.08;;;;
2022/06/16 03:59:30;;;;;;;6.149999;5.15;;;;;;;16.38;69.24707;95295.08;;;;
2022/06/16 04:00:31;;;;;;;6.149999;5.15;;;;;;;16.38;69.24707;95295.08;;;;
2022/06/16 04:01:31;;;;;;;6.149999;5.15;;;;;;;16.38;69.24707;95295.08;;;;
2022/06/16 04:02:32;;;;;;;6.149999;5.15;;;;;;;16.38;69.24707;95295.08;;;;
2022/06/16 04:04:05;;;;;;;6.149999;5.15;;;;;;;16.38;69.24707;95295.08;;;;
2022/06/16 04:05:07;;;;;;;6;5;;;;;;;16.59;69.01758;95289.48;;;;
2022/06/16 04:06:09;;;;;;;6;5;;;;;;;16.59;69.01758;95289.48;;;;
2022/06/16 04:07:10;;;;;;;6;5;;;;;;;16.59;69.01758;95289.48;;;;
2022/06/16 04:08:11;;;;;;;6;5;;;;;;;16.59;69.01758;95289.48;;;;
2022/06/16 04:09:12;;;;;;;6;5;;;;;;;16.59;69.01758;95289.48;;;;
2022/06/16 04:10:13;;;;;;;6;5;;;;;;;16.59;69.01758;95289.48;;;;
2022/06/16 04:11:30;;;;;;;6;5;;;;;;;16.59;69.01758;95289.48;;;;
2022/06/16 04:12:31;;;;;;;6;5;;;;;;;16.59;69.01758;95289.48;;;;
2022/06/16 04:13:31;;;;;;;6;5;;;;;;;16.59;69.01758;95289.48;;;;
2022/06/16 04:14:32;;;;;;;6;5;;;;;;;16.59;69.01758;95289.48;;;;
2022/06/16 04:15:33;;;;;;;5.25;4.849999;;;;;;;16.77;68.79297;95297.71;;;;
2022/06/16 04:16:33;;;;;;;5.25;4.849999;;;;;;;16.77;68.79297;95297.71;;;;
2022/06/16 04:17:36;;;;;;;5.25;4.849999;;;;;;;16.77;68.79297;95297.71;;;;
2022/06/16 04:18:36;;;;;;;5.25;4.849999;;;;;;;16.77;68.79297;95297.71;;;;
2022/06/16 04:20:11;;;;;;;5.25;4.849999;;;;;;;16.77;68.79297;95297.71;;;;
2022/06/16 04:21:12;;;;;;;5.25;4.849999;;;;;;;16.77;68.79297;95297.71;;;;
2022/06/16 04:22:14;;;;;;;5.25;4.849999;;;;;;;16.77;68.79297;95297.71;;;;
2022/06/16 04:23:15;;;;;;;5.25;4.849999;;;;;;;16.77;68.79297;95297.71;;;;
2022/06/16 04:24:15;;;;;;;5.25;4.849999;;;;;;;16.77;68.79297;95297.71;;;;
2022/06/16 04:25:17;;;;;;;5.25;4.849999;;;;;;;16.77;68.79297;95297.71;;;;
2022/06/16 04:26:20;;;;;;;5.199999;4.699999;;;;;;;16.99;68.66406;95304.22;;;;
2022/06/16 04:27:20;;;;;;;5.199999;4.699999;;;;;;;16.99;68.66406;95304.22;;;;
2022/06/16 04:28:21;;;;;;;5.199999;4.699999;;;;;;;16.99;68.66406;95304.22;;;;
2022/06/16 04:29:23;;;;;;;5.199999;4.699999;;;;;;;16.99;68.66406;95304.22;;;;
2022/06/16 04:30:24;;;;;;;5.199999;4.699999;;;;;;;16.99;68.66406;95304.22;;;;
2022/06/16 04:31:24;;;;;;;5.199999;4.699999;;;;;;;16.99;68.66406;95304.22;;;;
2022/06/16 04:32:25;;;;;;;5.199999;4.699999;;;;;;;16.99;68.66406;95304.22;;;;
2022/06/16 04:33:25;;;;;;;5.199999;4.699999;;;;;;;16.99;68.66406;95304.22;;;;
2022/06/16 04:34:26;;;;;;;5.199999;4.699999;;;;;;;16.99;68.66406;95304.22;;;;
2022/06/16 04:35:26;;;;;;;5.199999;4.699999;;;;;;;16.99;68.66406;95304.22;;;;
2022/06/16 04:36:28;;;;;;;6.400001;5.25;;;;;;;17.09;68.62598;95294.98;;;;
2022/06/16 04:37:29;;;;;;;6.400001;5.25;;;;;;;17.09;68.62598;95294.98;;;;
2022/06/16 04:38:29;;;;;;;6.400001;5.25;;;;;;;17.09;68.62598;95294.98;;;;
2022/06/16 04:39:30;;;;;;;6.400001;5.25;;;;;;;17.09;68.62598;95294.98;;;;
2022/06/16 04:40:32;;;;;;;6.400001;5.25;;;;;;;17.09;68.62598;95294.98;;;;
2022/06/16 04:41:32;;;;;;;6.400001;5.25;;;;;;;17.09;68.62598;95294.98;;;;
2022/06/16 04:42:33;;;;;;;6.400001;5.25;;;;;;;17.09;68.62598;95294.98;;;;
2022/06/16 04:43:33;;;;;;;6.400001;5.25;;;;;;;17.09;68.62598;95294.98;;;;
2022/06/16 04:44:34;;;;;;;6.400001;5.25;;;;;;;17.09;68.62598;95294.98;;;;
2022/06/16 04:45:35;;;;;;;6.400001;5.25;;;;;;;17.09;68.62598;95294.98;;;;
2022/06/16 04:46:36;;;;;;;6.400001;5.25;;;;;;;17.09;68.62598;95294.98;;;;
2022/06/16 04:47:36;;;;;;;6.400001;5.25;;;;;;;17.09;68.62598;95294.98;;;;
2022/06/16 04:48:37;;;;;;;6.400001;5.25;;;;;;;17.09;68.62598;95294.98;;;;
2022/06/16 04:49:38;;;;;;;6.400001;5.25;;;;;;;17.09;68.62598;95294.98;;;;
2022/06/16 04:50:38;;;;;;;6.400001;5.25;;;;;;;17.09;68.62598;95294.98;;;;
2022/06/16 04:51:39;;;;;;;6.400001;5.25;;;;;;;17.09;68.62598;95294.98;;;;
2022/06/16 04:52:39;;;;;;;6.400001;5.25;;;;;;;17.09;68.62598;95294.98;;;;
2022/06/16 04:53:40;;;;;;;6.400001;5.25;;;;;;;17.09;68.62598;95294.98;;;;
2022/06/16 04:54:40;;;;;;;6.400001;5.25;;;;;;;17.09;68.62598;95294.98;;;;
2022/06/16 04:55:44;;;;;;;6.400001;5.25;;;;;;;17.09;68.62598;95294.98;;;;
2022/06/16 04:56:51;;;;;;;6.400001;5.25;;;;;;;17.09;68.62598;95294.98;;;;
2022/06/16 04:57:54;;;;;;;6.350001;5.199999;;;;;;;17.46;68.28809;95287.51;;;;
2022/06/16 04:58:55;;;;;;;6.350001;5.199999;;;;;;;17.46;68.28809;95287.51;;;;
2022/06/16 04:59:55;;;;;;;6.350001;5.199999;;;;;;;17.46;68.28809;95287.51;;;;
2022/06/16 05:00:56;;;;;;;6.350001;5.199999;;;;;;;17.46;68.28809;95287.51;;;;
2022/06/16 05:01:57;;;;;;;6.350001;5.199999;;;;;;;17.46;68.28809;95287.51;;;;
2022/06/16 05:02:57;;;;;;;6.350001;5.199999;;;;;;;17.46;68.28809;95287.51;;;;
2022/06/16 05:03:58;;;;;;;6.350001;5.199999;;;;;;;17.46;68.28809;95287.51;;;;
2022/06/16 05:04:58;;;;;;;6.350001;5.199999;;;;;;;17.46;68.28809;95287.51;;;;
2022/06/16 05:05:59;;;;;;;6.350001;5.199999;;;;;;;17.46;68.28809;95287.51;;;;
2022/06/16 05:07:00;;;;;;;6.350001;5.199999;;;;;;;17.46;68.28809;95287.51;;;;
2022/06/16 05:08:01;;;;;;;6.350001;5.199999;;;;;;;17.46;68.28809;95287.51;;;;
2022/06/16 05:09:02;;;;;;;5.649999;5.05;;;;;;;17.81;68.2207;95302.09;;;;
2022/06/16 05:10:03;;;;;;;5.649999;5.05;;;;;;;17.81;68.2207;95302.09;;;;
2022/06/16 05:11:05;;;;;;;5.649999;5.05;;;;;;;17.81;68.2207;95302.09;;;;
2022/06/16 05:12:05;;;;;;;5.649999;5.05;;;;;;;17.81;68.2207;95302.09;;;;
2022/06/16 05:13:06;;;;;;;5.649999;5.05;;;;;;;17.81;68.2207;95302.09;;;;
2022/06/16 05:14:08;;;;;;;5.649999;5.05;;;;;;;17.81;68.2207;95302.09;;;;
2022/06/16 05:15:08;;;;;;;5.649999;5.05;;;;;;;17.81;68.2207;95302.09;;;;
2022/06/16 05:16:09;;;;;;;5.649999;5.05;;;;;;;17.81;68.2207;95302.09;;;;
2022/06/16 05:17:10;;;;;;;5.649999;5.05;;;;;;;17.81;68.2207;95302.09;;;;
2022/06/16 05:18:12;;;;;;;5.649999;5.05;;;;;;;17.81;68.2207;95302.09;;;;
2022/06/16 05:19:12;;;;;;;5.649999;5.05;;;;;;;17.81;68.2207;95302.09;;;;
2022/06/16 05:20:13;;;;;;;5.649999;5.05;;;;;;;17.81;68.2207;95302.09;;;;
2022/06/16 05:21:14;;;;;;;5.649999;5.05;;;;;;;17.81;68.2207;95302.09;;;;
2022/06/16 05:22:15;;;;;;;5.649999;5.05;;;;;;;17.81;68.2207;95302.09;;;;
2022/06/16 05:23:16;;;;;;;5.649999;5.05;;;;;;;17.81;68.2207;95302.09;;;;
2022/06/16 05:24:17;;;;;;;5.649999;5.05;;;;;;;17.81;68.2207;95302.09;;;;
2022/06/16 05:25:18;;;;;;;5.649999;5.05;;;;;;;17.81;68.2207;95302.09;;;;
2022/06/16 05:26:18;;;;;;;5.649999;5.05;;;;;;;17.81;68.2207;95302.09;;;;
2022/06/16 05:27:19;;;;;;;5.649999;5.05;;;;;;;17.81;68.2207;95302.09;;;;
2022/06/16 05:28:20;;;;;;;5.649999;5.05;;;;;;;17.81;68.2207;95302.09;;;;
2022/06/16 05:29:20;;;;;;;5.649999;5.05;;;;;;;17.81;68.2207;95302.09;;;;
2022/06/16 05:30:21;;;;;;;6.1;4.95;;;;;;;18.78;67.25977;95303.75;;;;
2022/06/16 05:31:23;;;;;;;6.1;4.95;;;;;;;18.78;67.25977;95303.75;;;;
2022/06/16 05:32:23;;;;;;;6.1;4.95;;;;;;;18.78;67.25977;95303.75;;;;
2022/06/16 05:33:24;;;;;;;6.1;4.95;;;;;;;18.78;67.25977;95303.75;;;;
2022/06/16 05:34:25;;;;;;;6.1;4.95;;;;;;;18.78;67.25977;95303.75;;;;
2022/06/16 05:35:25;;;;;;;6.1;4.95;;;;;;;18.78;67.25977;95303.75;;;;
2022/06/16 05:36:26;;;;;;;6.1;4.95;;;;;;;18.78;67.25977;95303.75;;;;
2022/06/16 05:37:27;;;;;;;6.1;4.95;;;;;;;18.78;67.25977;95303.75;;;;
2022/06/16 05:38:27;;;;;;;6.1;4.95;;;;;;;18.78;67.25977;95303.75;;;;
2022/06/16 05:39:29;;;;;;;6.1;4.95;;;;;;;18.78;67.25977;95303.75;;;;
2022/06/16 05:40:29;;;;;;;5.9;4.6;;;;;;;19.47;66.68262;95319.41;;;;
2022/06/16 05:41:30;;;;;;;5.9;4.6;;;;;;;19.47;66.68262;95319.41;;;;
2022/06/16 05:42:30;;;;;;;5.9;4.6;;;;;;;19.47;66.68262;95319.41;;;;
2022/06/16 05:43:32;;;;;;;5.9;4.6;;;;;;;19.47;66.68262;95319.41;;;;
2022/06/16 05:44:33;;;;;;;5.9;4.6;;;;;;;19.47;66.68262;95319.41;;;;
2022/06/16 05:45:34;;;;;;;5.9;4.6;;;;;;;19.47;66.68262;95319.41;;;;
2022/06/16 05:46:34;;;;;;;5.9;4.6;;;;;;;19.47;66.68262;95319.41;;;;
2022/06/16 05:47:34;;;;;;;5.9;4.6;;;;;;;19.47;66.68262;95319.41;;;;
2022/06/16 05:48:35;;;;;;;5.9;4.6;;;;;;;19.47;66.68262;95319.41;;;;
2022/06/16 05:49:38;;;;;;;5.9;4.6;;;;;;;19.47;66.68262;95319.41;;;;
2022/06/16 05:50:39;;;;;;;5.9;4.6;;;;;;;19.47;66.68262;95319.41;;;;
2022/06/16 05:51:39;;;;;;;7.650001;4.7;;;;;;;21.07;64.71289;95327.28;;;;
2022/06/16 05:52:40;;;;;;;7.650001;4.7;;;;;;;21.07;64.71289;95327.28;;;;
2022/06/16 05:53:41;;;;;;;7.650001;4.7;;;;;;;21.07;64.71289;95327.28;;;;
2022/06/16 05:54:42;;;;;;;7.650001;4.7;;;;;;;21.07;64.71289;95327.28;;;;
2022/06/16 05:55:42;;;;;;;7.650001;4.7;;;;;;;21.07;64.71289;95327.28;;;;
2022/06/16 05:56:43;;;;;;;7.650001;4.7;;;;;;;21.07;64.71289;95327.28;;;;
2022/06/16 05:57:43;;;;;;;7.650001;4.7;;;;;;;21.07;64.71289;95327.28;;;;
2022/06/16 05:58:44;;;;;;;7.650001;4.7;;;;;;;21.07;64.71289;95327.28;;;;
2022/06/16 05:59:45;;;;;;;7.650001;4.7;;;;;;;21.07;64.71289;95327.28;;;;
2022/06/16 06:00:45;;;;;;;7.650001;4.7;;;;;;;21.07;64.71289;95327.28;;;;